Time;durP1;ratioP1;P1;durP2;ratioP2;P2;SDS_P1;SDS_P2;PMS_P1;PMS_P2;Temp;Humidity;BMP_temperature;BMP_pressure;BME280_temperature;BME280_humidity;BME280_pressure;Samples;Min_cycle;Max_cycle;Signal;HPM_P1;HPM_P2
2021/06/14 00:00:15;;;;;;;6.43;3.57;;;16.00;1.00;;;;;;4918754;28;20184;-73
2021/06/14 00:02:42;;;;;;;5.93;3.47;;;15.90;1.00;;;;;;4920951;28;20806;-71
2021/06/14 00:05:12;;;;;;;6.20;3.30;;;16.00;1.00;;;;;;4914540;28;20962;-72
2021/06/14 00:07:38;;;;;;;6.80;2.93;;;16.10;1.00;;;;;;4925514;28;20457;-72
2021/06/14 00:10:07;;;;;;;5.97;3.30;;;15.90;1.00;;;;;;4920300;28;20459;-72
2021/06/14 00:12:33;;;;;;;5.90;2.80;;;15.90;1.00;;;;;;4920101;28;20317;-72
2021/06/14 00:14:59;;;;;;;10.07;4.30;;;15.80;1.00;;;;;;4917155;28;20462;-71
2021/06/14 00:17:24;;;;;;;7.33;3.33;;;15.70;1.00;;;;;;4922817;28;20191;-72
2021/06/14 00:19:50;;;;;;;6.80;3.13;;;15.80;1.00;;;;;;4920106;28;21057;-72
2021/06/14 00:22:17;;;;;;;5.17;2.70;;;15.70;1.00;;;;;;4924326;28;20199;-72
2021/06/14 00:24:42;;;;;;;3.80;2.90;;;15.80;1.00;;;;;;4922253;28;20214;-72
2021/06/14 00:27:10;;;;;;;5.20;2.87;;;15.80;1.00;;;;;;4920023;28;20468;-71
2021/06/14 00:29:35;;;;;;;5.20;3.50;;;15.80;1.00;;;;;;4919612;28;20285;-72
2021/06/14 00:32:01;;;;;;;5.83;3.13;;;15.80;1.00;;;;;;4919853;28;20457;-71
2021/06/14 00:34:27;;;;;;;8.43;3.13;;;15.80;1.00;;;;;;4920076;28;20774;-72
2021/06/14 00:36:55;;;;;;;4.70;3.43;;;15.70;1.00;;;;;;4912069;28;20308;-72
2021/06/14 00:39:20;;;;;;;7.60;4.03;;;15.60;1.00;;;;;;4920286;28;21018;-71
2021/06/14 00:41:46;;;;;;;9.40;3.80;;;15.70;1.00;;;;;;4924086;28;20561;-72
2021/06/14 00:44:12;;;;;;;9.10;3.70;;;15.70;1.00;;;;;;4916935;28;20268;-71
2021/06/14 00:46:38;;;;;;;7.00;3.40;;;15.60;1.00;;;;;;4916233;28;20707;-72
2021/06/14 00:49:04;;;;;;;6.60;3.60;;;15.60;1.00;;;;;;4921457;28;20455;-72
2021/06/14 00:51:30;;;;;;;4.70;3.00;;;15.50;1.00;;;;;;4921179;28;20195;-70
2021/06/14 00:54:00;;;;;;;7.60;4.10;;;15.50;1.00;;;;;;4948595;28;20460;-71
2021/06/14 00:56:29;;;;;;;11.87;4.47;;;15.60;1.00;;;;;;4927836;28;20600;-72
2021/06/14 00:58:55;;;;;;;7.07;3.43;;;15.50;1.00;;;;;;4939966;28;20455;-71
2021/06/14 01:01:21;;;;;;;9.10;3.90;;;15.30;1.00;;;;;;4911907;28;20811;-71
2021/06/14 01:03:49;;;;;;;6.93;4.37;;;15.30;1.00;;;;;;4917222;28;20588;-71
2021/06/14 01:06:15;;;;;;;8.40;3.97;;;15.30;1.00;;;;;;4924348;28;20804;-71
2021/06/14 01:08:47;;;;;;;5.07;3.33;;;15.20;1.00;;;;;;4936935;28;20182;-72
2021/06/14 01:11:24;;;;;;;8.10;4.00;;;15.20;1.00;;;;;;4949991;28;20465;-73
2021/06/14 01:14:03;;;;;;;4.70;3.47;;;15.20;1.00;;;;;;4914558;28;20454;-72
2021/06/14 01:16:40;;;;;;;5.03;2.90;;;15.20;1.00;;;;;;4921339;28;20528;-73
2021/06/14 01:19:21;;;;;;;5.87;3.00;;;15.30;1.00;;;;;;4918087;28;20508;-72
2021/06/14 01:22:21;;;;;;;5.57;3.77;;;15.30;1.00;;;;;;4912805;28;20862;-72
2021/06/14 01:25:32;;;;;;;5.80;3.37;;;15.30;1.00;;;;;;4927202;28;20514;-72
2021/06/14 01:27:58;;;;;;;5.13;2.80;;;15.40;1.00;;;;;;4973679;28;20501;-72
2021/06/14 01:30:27;;;;;;;5.53;3.20;;;15.50;1.00;;;;;;4969416;28;20451;-72
2021/06/14 01:32:56;;;;;;;5.07;3.47;;;15.50;1.00;;;;;;4932680;28;21049;-72
2021/06/14 01:35:44;;;;;;;5.80;2.50;;;15.40;1.00;;;;;;4928351;28;20517;-72
2021/06/14 01:38:12;;;;;;;4.90;2.87;;;15.30;1.00;;;;;;4922665;28;21095;-72
2021/06/14 01:40:40;;;;;;;8.03;3.30;;;15.40;1.00;;;;;;4916300;28;20454;-72
2021/06/14 01:43:11;;;;;;;4.50;3.00;;;15.40;1.00;;;;;;4927518;28;20593;-72
2021/06/14 01:45:42;;;;;;;11.83;3.60;;;15.30;1.00;;;;;;4909826;28;20487;-71
2021/06/14 01:48:09;;;;;;;7.93;4.00;;;15.30;1.00;;;;;;4920064;28;20445;-72
2021/06/14 01:50:38;;;;;;;5.53;3.43;;;15.30;1.00;;;;;;4926015;28;20485;-72
2021/06/14 01:53:06;;;;;;;8.33;3.83;;;15.40;1.00;;;;;;4921040;28;20435;-72
2021/06/14 01:55:34;;;;;;;5.27;2.60;;;15.30;1.00;;;;;;4918274;28;20470;-71
2021/06/14 01:58:05;;;;;;;6.73;3.53;;;15.30;1.00;;;;;;4920603;28;20442;-71
2021/06/14 02:00:43;;;;;;;7.17;3.20;;;15.30;1.00;;;;;;4923539;28;20465;-72
2021/06/14 02:03:31;;;;;;;7.03;3.50;;;15.20;1.00;;;;;;4917267;28;20589;-72
2021/06/14 02:06:05;;;;;;;7.57;3.37;;;15.20;1.00;;;;;;4923814;28;20470;-72
2021/06/14 02:08:31;;;;;;;8.03;3.13;;;15.10;1.00;;;;;;4917742;28;20547;-71
2021/06/14 02:10:58;;;;;;;6.70;3.03;;;15.20;1.00;;;;;;4932992;28;20474;-72
2021/06/14 02:13:25;;;;;;;6.87;3.77;;;15.20;1.00;;;;;;4945791;28;20183;-72
2021/06/14 02:15:52;;;;;;;5.03;3.37;;;15.20;1.00;;;;;;4911550;28;20460;-71
2021/06/14 02:18:23;;;;;;;6.40;3.50;;;15.10;1.00;;;;;;4919485;28;20431;-72
2021/06/14 02:20:52;;;;;;;6.67;3.37;;;15.10;1.00;;;;;;4925235;28;20442;-72
2021/06/14 02:23:20;;;;;;;5.17;2.90;;;15.20;1.00;;;;;;4915559;28;20459;-72
2021/06/14 02:25:46;;;;;;;5.63;3.20;;;15.20;1.00;;;;;;4917094;28;20531;-72
2021/06/14 02:28:12;;;;;;;6.03;3.40;;;15.20;1.00;;;;;;4917932;28;20447;-72
2021/06/14 02:30:38;;;;;;;3.80;3.17;;;15.20;1.00;;;;;;4921713;28;20189;-73
2021/06/14 02:33:05;;;;;;;6.23;3.83;;;15.20;1.00;;;;;;4917950;28;20197;-72
2021/06/14 02:35:31;;;;;;;6.50;3.70;;;15.20;1.00;;;;;;4919923;28;20454;-72
2021/06/14 02:38:00;;;;;;;5.63;3.20;;;15.20;1.00;;;;;;4918253;28;20546;-72
2021/06/14 02:40:30;;;;;;;9.00;3.63;;;15.20;1.00;;;;;;4921979;28;20570;-73
2021/06/14 02:43:00;;;;;;;6.80;3.60;;;15.30;1.00;;;;;;4920158;28;22142;-73
2021/06/14 02:45:27;;;;;;;4.73;3.13;;;15.20;1.00;;;;;;4918366;28;20481;-72
2021/06/14 02:47:55;;;;;;;7.30;3.47;;;15.20;1.00;;;;;;4925487;28;20449;-72
2021/06/14 02:50:21;;;;;;;6.27;3.40;;;15.20;1.00;;;;;;4951539;28;20452;-72
2021/06/14 02:52:52;;;;;;;6.73;3.47;;;15.10;1.00;;;;;;4920043;28;20813;-73
2021/06/14 02:55:25;;;;;;;4.13;3.47;;;15.00;1.00;;;;;;4923157;28;20559;-73
2021/06/14 02:57:54;;;;;;;7.63;4.23;;;14.90;1.00;;;;;;4917872;28;20441;-72
2021/06/14 03:00:28;;;;;;;7.67;4.43;;;14.80;1.00;;;;;;4924005;28;20766;-72
2021/06/14 03:03:02;;;;;;;6.37;4.30;;;14.60;1.00;;;;;;4919713;28;20450;-72
2021/06/14 03:05:30;;;;;;;4.40;3.73;;;14.30;1.00;;;;;;4918235;28;20569;-72
2021/06/14 03:07:58;;;;;;;15.50;4.53;;;14.20;1.00;;;;;;4918694;28;20450;-73
2021/06/14 03:10:25;;;;;;;9.03;4.20;;;14.10;1.00;;;;;;4927762;28;20469;-72
2021/06/14 03:12:53;;;;;;;7.47;3.93;;;14.20;1.00;;;;;;4919257;28;20433;-72
2021/06/14 03:15:21;;;;;;;11.60;4.40;;;14.20;1.00;;;;;;4924014;28;20711;-72
2021/06/14 03:17:47;;;;;;;14.50;4.63;;;14.20;1.00;;;;;;4919866;28;20511;-72
2021/06/14 03:20:13;;;;;;;13.00;5.30;;;14.10;1.00;;;;;;4920216;28;20465;-72
2021/06/14 03:22:39;;;;;;;8.57;4.40;;;13.90;1.00;;;;;;4923187;28;20482;-72
2021/06/14 03:25:06;;;;;;;7.07;4.87;;;13.80;1.00;;;;;;4920900;28;20624;-72
2021/06/14 03:27:34;;;;;;;10.17;4.80;;;13.80;1.00;;;;;;4921429;28;20470;-72
2021/06/14 03:30:00;;;;;;;8.60;4.90;;;13.80;1.00;;;;;;4917819;28;20491;-72
2021/06/14 03:32:26;;;;;;;6.40;4.10;;;13.60;1.00;;;;;;4928895;28;20557;-72
2021/06/14 03:34:53;;;;;;;10.23;4.90;;;13.50;1.00;;;;;;4916645;28;20454;-72
2021/06/14 03:37:19;;;;;;;12.80;5.97;;;13.40;1.00;;;;;;4918052;28;20871;-73
2021/06/14 03:39:45;;;;;;;7.03;4.37;;;13.50;1.00;;;;;;4917285;28;20442;-72
2021/06/14 03:42:18;;;;;;;8.57;5.13;;;13.60;1.00;;;;;;4920418;28;20446;-72
2021/06/14 03:44:44;;;;;;;9.60;5.37;;;13.60;1.00;;;;;;4925207;28;20214;-71
2021/06/14 03:47:10;;;;;;;7.13;4.50;;;13.60;1.00;;;;;;4915721;28;20451;-71
2021/06/14 03:49:35;;;;;;;7.97;5.27;;;13.60;1.00;;;;;;4925413;28;20447;-71
2021/06/14 03:52:01;;;;;;;6.20;4.33;;;13.60;1.00;;;;;;4952605;28;20206;-71
2021/06/14 03:54:27;;;;;;;8.93;3.87;;;13.70;1.00;;;;;;4919652;28;20198;-71
2021/06/14 03:56:53;;;;;;;8.30;4.20;;;14.10;1.00;;;;;;4913072;28;20281;-71
2021/06/14 03:59:19;;;;;;;8.17;4.50;;;14.30;1.00;;;;;;4915325;28;20449;-71
2021/06/14 04:01:45;;;;;;;11.67;4.80;;;14.30;1.00;;;;;;4919465;28;20956;-71
2021/06/14 04:06:36;;;;;;;6.70;4.80;;;14.10;1.00;;;;;;4911219;28;20614;-70
2021/06/14 04:09:02;;;;;;;7.33;4.67;;;14.10;1.00;;;;;;4912366;28;20187;-71
2021/06/14 04:11:28;;;;;;;5.67;4.73;;;14.10;1.00;;;;;;4910666;28;20215;-71
2021/06/14 04:13:54;;;;;;;14.67;5.10;;;13.90;1.00;;;;;;4910643;28;20454;-71
2021/06/14 04:16:20;;;;;;;14.70;5.57;;;13.80;1.00;;;;;;4906138;28;20195;-71
2021/06/14 04:18:46;;;;;;;12.20;4.23;;;13.70;1.00;;;;;;4913168;28;21083;-71
2021/06/14 04:21:12;;;;;;;10.63;5.40;;;13.70;1.00;;;;;;4913212;28;20513;-71
2021/06/14 04:23:39;;;;;;;5.87;4.30;;;13.80;1.00;;;;;;4929776;28;20563;-71
2021/06/14 04:26:04;;;;;;;9.70;4.47;;;13.90;1.00;;;;;;4915396;28;20218;-71
2021/06/14 04:28:30;;;;;;;7.70;5.57;;;14.00;1.00;;;;;;4908592;28;20528;-71
2021/06/14 04:30:55;;;;;;;12.07;4.80;;;14.00;1.00;;;;;;4911092;28;20202;-71
2021/06/14 04:33:21;;;;;;;9.93;4.40;;;14.00;1.00;;;;;;4915121;28;20194;-71
2021/06/14 04:35:47;;;;;;;6.43;4.80;;;14.00;1.00;;;;;;4912676;28;21075;-70
2021/06/14 04:38:12;;;;;;;6.93;4.50;;;14.10;1.00;;;;;;4916156;28;20286;-71
2021/06/14 04:40:38;;;;;;;8.27;4.70;;;14.10;1.00;;;;;;4917809;28;20247;-72
2021/06/14 04:43:04;;;;;;;10.00;4.90;;;14.20;1.00;;;;;;4908053;28;20203;-71
2021/06/14 04:45:29;;;;;;;6.97;5.20;;;14.60;1.00;;;;;;4913361;28;20253;-71
2021/06/14 04:47:56;;;;;;;8.77;5.27;;;14.70;1.00;;;;;;4916778;28;20324;-71
2021/06/14 04:50:21;;;;;;;6.87;5.03;;;14.70;1.00;;;;;;4912802;28;20459;-72
2021/06/14 04:52:47;;;;;;;8.90;5.00;;;14.80;1.00;;;;;;4917680;28;20451;-72
2021/06/14 04:55:13;;;;;;;9.27;5.20;;;14.90;1.00;;;;;;4928965;28;20305;-71
2021/06/14 04:57:39;;;;;;;6.60;4.03;;;15.00;1.00;;;;;;4910341;28;20195;-71
2021/06/14 05:00:07;;;;;;;5.97;4.23;;;15.20;1.00;;;;;;4911520;28;20215;-71
2021/06/14 05:02:33;;;;;;;8.50;4.00;;;15.20;1.00;;;;;;4909754;28;21052;-71
2021/06/14 05:04:59;;;;;;;10.93;4.57;;;15.40;1.00;;;;;;4920242;28;20520;-71
2021/06/14 05:07:25;;;;;;;10.80;3.73;;;15.50;1.00;;;;;;4915349;28;20198;-72
2021/06/14 05:09:53;;;;;;;7.90;3.33;;;15.60;1.00;;;;;;4915863;28;20206;-72
2021/06/14 05:12:18;;;;;;;7.27;3.30;;;15.70;1.00;;;;;;4912539;28;20458;-71
2021/06/14 05:14:44;;;;;;;5.07;3.57;;;16.00;1.00;;;;;;4917127;28;20478;-71
2021/06/14 05:17:10;;;;;;;5.40;3.10;;;16.20;1.00;;;;;;4920174;28;20654;-71
2021/06/14 05:19:36;;;;;;;5.03;3.13;;;16.30;1.00;;;;;;4916017;28;20257;-71
2021/06/14 05:22:04;;;;;;;6.13;3.20;;;16.50;1.00;;;;;;4929657;28;20557;-72
2021/06/14 05:24:33;;;;;;;6.50;3.80;;;16.50;1.00;;;;;;4918328;28;20218;-72
2021/06/14 05:26:59;;;;;;;6.47;4.00;;;16.70;1.00;;;;;;4919473;28;20503;-71
2021/06/14 05:29:24;;;;;;;7.60;4.87;;;16.60;1.00;;;;;;4912199;28;20936;-71
2021/06/14 05:31:50;;;;;;;7.27;4.23;;;16.50;1.00;;;;;;4911244;28;20501;-72
2021/06/14 05:34:16;;;;;;;8.30;4.23;;;16.50;1.00;;;;;;4927771;28;21430;-71
2021/06/14 05:36:42;;;;;;;7.03;4.40;;;16.50;1.00;;;;;;4923479;28;20458;-72
2021/06/14 05:39:08;;;;;;;8.37;2.80;;;16.70;1.00;;;;;;4925136;28;20516;-71
2021/06/14 05:41:33;;;;;;;8.83;2.97;;;16.80;1.00;;;;;;4923233;28;20242;-71
2021/06/14 05:43:59;;;;;;;4.80;3.50;;;16.90;1.00;;;;;;4921805;28;20277;-71
2021/06/14 05:46:25;;;;;;;12.20;4.00;;;17.10;1.00;;;;;;4924518;28;20194;-72
2021/06/14 05:48:51;;;;;;;3.73;2.77;;;17.20;1.00;;;;;;4923128;28;20195;-71
2021/06/14 05:51:16;;;;;;;5.57;2.90;;;17.40;1.00;;;;;;4918319;28;20325;-72
2021/06/14 05:53:42;;;;;;;7.23;3.30;;;17.60;1.00;;;;;;4924885;28;20219;-72
2021/06/14 05:56:08;;;;;;;5.07;3.10;;;17.70;1.00;;;;;;4919992;28;20234;-72
2021/06/14 05:58:34;;;;;;;4.93;3.13;;;17.80;1.00;;;;;;4922649;28;20188;-71
2021/06/14 06:01:00;;;;;;;6.23;3.60;;;17.90;1.00;;;;;;4923879;28;20811;-71
2021/06/14 06:03:25;;;;;;;8.10;3.57;;;18.00;1.00;;;;;;4916437;28;20453;-71
2021/06/14 06:05:51;;;;;;;6.97;4.90;;;18.20;1.00;;;;;;4915755;28;20222;-72
2021/06/14 06:08:17;;;;;;;8.63;3.10;;;18.20;1.00;;;;;;4920576;28;20858;-72
2021/06/14 06:10:42;;;;;;;4.80;3.10;;;18.30;1.00;;;;;;4921756;28;20566;-72
2021/06/14 06:13:08;;;;;;;5.33;3.23;;;18.40;1.00;;;;;;4927935;28;20188;-71
2021/06/14 06:15:34;;;;;;;6.50;2.90;;;18.50;1.00;;;;;;4920708;28;20665;-72
2021/06/14 06:18:00;;;;;;;7.27;3.60;;;18.60;1.00;;;;;;4924206;28;20201;-72
2021/06/14 06:20:26;;;;;;;5.47;2.90;;;18.70;1.00;;;;;;4923826;28;20447;-72
2021/06/14 06:22:52;;;;;;;6.27;3.00;;;18.80;1.00;;;;;;4922408;28;20202;-71
2021/06/14 06:25:20;;;;;;;6.03;2.73;;;18.80;1.00;;;;;;4924411;28;20219;-72
2021/06/14 06:27:47;;;;;;;7.73;3.67;;;19.00;1.00;;;;;;4917289;28;20570;-72
2021/06/14 06:30:17;;;;;;;4.40;3.23;;;19.10;1.00;;;;;;4922976;28;20592;-71
2021/06/14 06:32:43;;;;;;;3.30;2.50;;;19.10;1.00;;;;;;4918596;28;20465;-72
2021/06/14 06:35:10;;;;;;;5.00;2.90;;;19.20;1.00;;;;;;4915410;28;20466;-71
2021/06/14 06:37:37;;;;;;;6.50;3.23;;;19.30;1.00;;;;;;4917553;28;20494;-72
2021/06/14 06:40:03;;;;;;;6.47;3.30;;;19.40;1.00;;;;;;4919183;28;20451;-73
2021/06/14 06:42:29;;;;;;;8.00;3.33;;;19.60;1.00;;;;;;4930654;28;20510;-72
2021/06/14 06:44:55;;;;;;;7.17;3.20;;;19.60;1.00;;;;;;4919871;28;20509;-72
2021/06/14 06:47:20;;;;;;;5.03;3.30;;;19.80;1.00;;;;;;4920626;28;20234;-72
2021/06/14 06:49:46;;;;;;;4.10;2.77;;;19.80;1.00;;;;;;4918254;28;20193;-72
2021/06/14 06:52:12;;;;;;;6.03;3.30;;;19.90;1.00;;;;;;4917983;28;20668;-72
2021/06/14 06:54:38;;;;;;;5.07;2.97;;;20.10;1.00;;;;;;4925674;28;20206;-72
2021/06/14 06:57:04;;;;;;;5.93;2.60;;;20.10;1.00;;;;;;4922987;28;20214;-72
2021/06/14 06:59:30;;;;;;;4.83;3.00;;;20.20;1.00;;;;;;4919491;28;20295;-73
2021/06/14 07:01:56;;;;;;;5.50;3.07;;;20.20;1.00;;;;;;4918561;28;20448;-72
2021/06/14 07:04:21;;;;;;;7.87;3.10;;;20.30;1.00;;;;;;4914462;28;20521;-71
2021/06/14 07:06:47;;;;;;;5.60;3.60;;;20.30;1.00;;;;;;4917640;28;20195;-71
2021/06/14 07:09:13;;;;;;;6.17;3.23;;;20.30;1.00;;;;;;4909491;28;20402;-73
2021/06/14 07:11:39;;;;;;;4.53;2.90;;;20.30;1.00;;;;;;4915816;28;20233;-73
2021/06/14 07:14:04;;;;;;;4.70;2.80;;;20.40;1.00;;;;;;4920676;28;20597;-72
2021/06/14 07:16:31;;;;;;;5.20;2.80;;;20.40;1.00;;;;;;4922880;28;20464;-73
2021/06/14 07:18:57;;;;;;;7.93;2.83;;;20.50;1.00;;;;;;4920660;28;22212;-72
2021/06/14 07:21:23;;;;;;;6.13;2.87;;;20.50;1.00;;;;;;4918727;28;20469;-72
2021/06/14 07:23:50;;;;;;;4.70;3.17;;;20.60;1.00;;;;;;4915552;28;20443;-72
2021/06/14 07:26:16;;;;;;;7.90;2.53;;;20.60;1.00;;;;;;4918959;28;20483;-72
2021/06/14 07:28:42;;;;;;;8.30;3.27;;;20.80;1.00;;;;;;4916774;28;20968;-73
2021/06/14 07:31:09;;;;;;;4.67;3.00;;;20.90;1.00;;;;;;4919630;28;20501;-72
2021/06/14 07:33:35;;;;;;;6.30;3.20;;;20.90;1.00;;;;;;4913640;28;20451;-72
2021/06/14 07:36:03;;;;;;;6.53;2.93;;;21.00;1.00;;;;;;4914745;28;20458;-72
2021/06/14 07:38:30;;;;;;;14.53;3.67;;;21.00;1.00;;;;;;4914679;28;20468;-73
2021/06/14 07:40:56;;;;;;;8.60;2.80;;;21.10;1.00;;;;;;4908474;28;20868;-72
2021/06/14 07:43:22;;;;;;;9.43;3.40;;;21.20;1.00;;;;;;4910244;28;20470;-72
2021/06/14 07:45:48;;;;;;;5.90;3.23;;;21.30;1.00;;;;;;4929227;28;21434;-72
2021/06/14 07:48:14;;;;;;;5.57;3.30;;;21.30;1.00;;;;;;4932339;28;20212;-72
2021/06/14 07:50:41;;;;;;;4.80;3.30;;;21.40;1.00;;;;;;4930314;28;21490;-73
2021/06/14 07:53:07;;;;;;;10.13;3.10;;;21.40;1.00;;;;;;4925589;28;20944;-72
2021/06/14 07:55:33;;;;;;;8.30;3.37;;;21.40;1.00;;;;;;4921429;28;20501;-72
2021/06/14 07:57:59;;;;;;;5.90;2.40;;;21.50;1.00;;;;;;4929932;28;20191;-73
2021/06/14 08:00:26;;;;;;;8.10;3.10;;;21.60;1.00;;;;;;4933260;28;20462;-72
2021/06/14 08:02:52;;;;;;;5.43;2.87;;;21.60;1.00;;;;;;4917151;28;20874;-72
2021/06/14 08:05:18;;;;;;;4.97;2.80;;;21.70;1.00;;;;;;4917688;28;20596;-72
2021/06/14 08:07:44;;;;;;;7.53;3.13;;;21.80;1.00;;;;;;4920072;28;20207;-73
2021/06/14 08:10:14;;;;;;;7.87;3.00;;;21.80;1.00;;;;;;4925979;28;21078;-72
2021/06/14 08:12:52;;;;;;;6.87;3.40;;;21.90;1.00;;;;;;4919067;28;20210;-72
2021/06/14 08:15:23;;;;;;;6.67;3.20;;;21.90;1.00;;;;;;4920631;28;20450;-73
2021/06/14 08:17:50;;;;;;;7.40;3.53;;;22.00;1.00;;;;;;4919315;28;20848;-73
2021/06/14 08:20:34;;;;;;;7.37;3.93;;;22.10;1.00;;;;;;4917845;28;20446;-73
2021/06/14 08:25:44;;;;;;;7.40;3.27;;;22.30;1.00;;;;;;4912403;28;20490;-72
2021/06/14 08:28:09;;;;;;;6.40;3.00;;;22.30;1.00;;;;;;4906835;28;20450;-73
2021/06/14 08:30:35;;;;;;;5.20;2.83;;;22.40;1.00;;;;;;4909562;28;20205;-73
2021/06/14 08:33:01;;;;;;;7.90;3.47;;;22.40;1.00;;;;;;4911653;28;20189;-72
2021/06/14 08:35:29;;;;;;;5.80;3.13;;;22.50;1.00;;;;;;4907456;28;20743;-73
2021/06/14 08:37:55;;;;;;;11.30;4.13;;;22.60;1.00;;;;;;4919010;28;20462;-73
2021/06/14 08:40:24;;;;;;;5.00;3.00;;;22.60;1.00;;;;;;4919297;28;20439;-73
2021/06/14 08:42:50;;;;;;;5.40;3.00;;;22.70;1.00;;;;;;4922036;28;20497;-73
2021/06/14 08:45:16;;;;;;;7.73;4.20;;;22.80;1.00;;;;;;4909397;28;20481;-73
2021/06/14 08:47:44;;;;;;;9.50;3.33;;;22.90;1.00;;;;;;4911011;28;20446;-73
2021/06/14 08:50:13;;;;;;;5.63;3.53;;;22.90;1.00;;;;;;4912934;28;20466;-73
2021/06/14 08:52:39;;;;;;;5.17;2.90;;;22.90;1.00;;;;;;4919449;28;20450;-73
2021/06/14 08:55:08;;;;;;;7.03;3.40;;;22.80;1.00;;;;;;4909886;28;20466;-73
2021/06/14 08:57:35;;;;;;;4.50;3.53;;;22.90;1.00;;;;;;4913525;28;20487;-72
2021/06/14 09:00:01;;;;;;;6.90;3.50;;;22.80;1.00;;;;;;4909344;28;20537;-73
2021/06/14 09:02:27;;;;;;;7.03;3.40;;;22.90;1.00;;;;;;4918879;28;20461;-72
2021/06/14 09:04:52;;;;;;;7.00;3.53;;;23.00;1.00;;;;;;4915200;28;20903;-73
2021/06/14 09:07:18;;;;;;;5.73;3.60;;;23.10;1.00;;;;;;4913389;28;20202;-73
2021/06/14 09:09:45;;;;;;;5.40;3.50;;;23.10;1.00;;;;;;4915081;28;20200;-72
2021/06/14 09:12:11;;;;;;;10.33;3.50;;;23.20;1.00;;;;;;4925741;28;20302;-72
2021/06/14 09:14:42;;;;;;;5.47;3.00;;;23.20;1.00;;;;;;4919491;28;20454;-73
2021/06/14 09:17:12;;;;;;;8.07;3.23;;;23.30;1.00;;;;;;4911428;28;20446;-73
2021/06/14 09:19:59;;;;;;;6.43;3.37;;;23.40;1.00;;;;;;4915522;28;20457;-73
2021/06/14 09:22:26;;;;;;;5.10;3.20;;;23.60;1.00;;;;;;4915284;28;21043;-73
2021/06/14 09:24:58;;;;;;;9.87;3.47;;;23.70;1.00;;;;;;4914791;28;20501;-73
2021/06/14 09:27:33;;;;;;;7.07;3.17;;;23.80;1.00;;;;;;4912920;28;21044;-73
2021/06/14 09:30:13;;;;;;;7.60;3.07;;;23.90;1.00;;;;;;4910144;28;20907;-73
2021/06/14 09:33:09;;;;;;;6.80;3.40;;;23.90;1.00;;;;;;4911721;28;20447;-73
2021/06/14 09:35:36;;;;;;;7.50;3.30;;;23.80;1.00;;;;;;4930128;28;20451;-73
2021/06/14 09:38:11;;;;;;;8.03;3.30;;;23.90;1.00;;;;;;4945204;28;21044;-73
2021/06/14 09:40:49;;;;;;;6.10;3.10;;;24.00;1.00;;;;;;4916072;28;20565;-73
2021/06/14 09:43:27;;;;;;;5.63;3.13;;;24.10;1.00;;;;;;4919922;28;20447;-73
2021/06/14 09:45:54;;;;;;;5.60;3.50;;;24.20;1.00;;;;;;4933235;28;20479;-73
2021/06/14 09:48:27;;;;;;;5.00;3.20;;;24.30;1.00;;;;;;4919233;28;20467;-73
2021/06/14 09:50:56;;;;;;;6.43;2.83;;;24.40;1.00;;;;;;4916991;28;21000;-72
2021/06/14 09:53:30;;;;;;;4.10;3.03;;;24.40;1.00;;;;;;4913773;28;20452;-73
2021/06/14 09:55:55;;;;;;;4.57;2.80;;;24.40;1.00;;;;;;4917716;28;20583;-73
2021/06/14 09:58:24;;;;;;;5.63;3.13;;;24.40;1.00;;;;;;4914793;28;20452;-73
2021/06/14 10:00:58;;;;;;;5.43;3.27;;;24.40;1.00;;;;;;4918053;28;24436;-73
2021/06/14 10:03:38;;;;;;;5.80;2.70;;;24.50;1.00;;;;;;4913283;28;21445;-73
2021/06/14 10:06:04;;;;;;;3.40;2.40;;;24.60;1.00;;;;;;4913099;28;20857;-74
2021/06/14 10:08:32;;;;;;;5.67;3.10;;;24.70;1.00;;;;;;4918393;28;20453;-74
2021/06/14 10:11:17;;;;;;;3.63;2.90;;;24.80;1.00;;;;;;4919371;28;20846;-73
2021/06/14 10:13:45;;;;;;;8.10;3.43;;;24.90;1.00;;;;;;4916947;28;20450;-72
2021/06/14 10:16:23;;;;;;;5.03;3.33;;;24.90;1.00;;;;;;4915222;28;20458;-73
2021/06/14 10:19:00;;;;;;;4.67;3.03;;;24.90;1.00;;;;;;4914903;28;20466;-73
2021/06/14 10:21:29;;;;;;;6.10;3.40;;;24.90;1.00;;;;;;4913491;28;20456;-73
2021/06/14 10:23:56;;;;;;;5.90;3.10;;;24.90;1.00;;;;;;4918405;28;21166;-73
2021/06/14 10:26:23;;;;;;;4.50;2.70;;;25.00;1.00;;;;;;4913623;28;20876;-73
2021/06/14 10:28:50;;;;;;;7.30;2.43;;;25.10;1.00;;;;;;4915065;28;20459;-73
2021/06/14 10:31:16;;;;;;;6.70;3.23;;;25.20;1.00;;;;;;4919675;28;20443;-73
2021/06/14 10:33:44;;;;;;;4.77;3.00;;;25.20;1.00;;;;;;4917638;28;20455;-72
2021/06/14 10:36:10;;;;;;;6.57;2.73;;;25.10;1.00;;;;;;4924023;28;20467;-73
2021/06/14 10:38:43;;;;;;;6.17;2.63;;;25.30;1.00;;;;;;4918712;28;20459;-73
2021/06/14 10:41:09;;;;;;;7.10;2.97;;;25.40;1.00;;;;;;4920976;28;20580;-73
2021/06/14 10:43:34;;;;;;;3.70;2.70;;;25.50;1.00;;;;;;4921533;28;20585;-73
2021/06/14 10:46:02;;;;;;;4.87;2.90;;;25.50;1.00;;;;;;4937137;28;20505;-73
2021/06/14 10:48:33;;;;;;;4.37;2.60;;;25.60;1.00;;;;;;4918637;28;20210;-73
2021/06/14 10:51:00;;;;;;;5.47;3.60;;;25.40;1.00;;;;;;4926521;28;21249;-73
2021/06/14 10:53:30;;;;;;;4.43;3.07;;;25.60;1.00;;;;;;4916646;28;20534;-73
2021/06/14 10:55:58;;;;;;;6.00;2.80;;;25.60;1.00;;;;;;4925344;28;21016;-73
2021/06/14 10:58:24;;;;;;;6.67;2.93;;;25.70;1.00;;;;;;4921561;28;20450;-73
2021/06/14 11:01:08;;;;;;;4.80;2.70;;;25.80;1.00;;;;;;4922142;28;20474;-73
2021/06/14 11:03:45;;;;;;;6.47;2.93;;;25.90;1.00;;;;;;4923540;28;20540;-73
2021/06/14 11:06:32;;;;;;;3.60;2.40;;;25.80;1.00;;;;;;4928102;28;20478;-73
2021/06/14 11:09:13;;;;;;;3.90;2.60;;;25.90;1.00;;;;;;4921318;28;20556;-73
2021/06/14 11:11:57;;;;;;;5.43;2.70;;;25.90;1.00;;;;;;4924836;28;20462;-73
2021/06/14 11:14:32;;;;;;;6.40;3.90;;;25.90;1.00;;;;;;4929426;28;20737;-74
2021/06/14 11:17:12;;;;;;;5.90;3.00;;;26.10;1.00;;;;;;4933206;28;20457;-73
2021/06/14 11:19:38;;;;;;;4.60;2.50;;;26.10;1.00;;;;;;4927909;28;20510;-73
2021/06/14 11:22:04;;;;;;;4.93;2.40;;;26.00;1.00;;;;;;4920894;28;20454;-73
2021/06/14 11:24:36;;;;;;;4.30;2.70;;;26.20;1.00;;;;;;4919529;28;20234;-73
2021/06/14 11:27:02;;;;;;;4.87;3.47;;;26.20;1.00;;;;;;4916192;28;20579;-73
2021/06/14 11:29:28;;;;;;;5.63;3.40;;;26.10;1.00;;;;;;4923142;28;20542;-73
2021/06/14 11:31:56;;;;;;;3.67;2.67;;;26.00;1.00;;;;;;4923995;28;20462;-74
2021/06/14 11:34:21;;;;;;;4.13;2.70;;;26.20;1.00;;;;;;4925753;28;20196;-74
2021/06/14 11:36:57;;;;;;;5.00;2.60;;;26.30;1.00;;;;;;4931361;28;20489;-74
2021/06/14 11:39:24;;;;;;;4.63;2.70;;;26.20;1.00;;;;;;4923346;28;20195;-73
2021/06/14 11:41:52;;;;;;;5.50;2.93;;;26.20;1.00;;;;;;4926615;28;20478;-73
2021/06/14 11:44:20;;;;;;;4.90;2.70;;;26.40;1.00;;;;;;4920993;28;20486;-73
2021/06/14 11:46:47;;;;;;;5.37;3.00;;;26.40;1.00;;;;;;4918475;28;20451;-73
2021/06/14 11:49:13;;;;;;;4.67;2.80;;;26.30;1.00;;;;;;4914417;28;20902;-73
2021/06/14 11:51:39;;;;;;;4.63;2.97;;;26.40;1.00;;;;;;4925160;28;20474;-73
2021/06/14 11:54:07;;;;;;;4.90;2.20;;;26.40;1.00;;;;;;4921212;28;20188;-73
2021/06/14 11:56:36;;;;;;;4.00;2.30;;;26.50;1.00;;;;;;4918930;28;20301;-73
2021/06/14 11:59:03;;;;;;;4.97;2.53;;;26.40;1.00;;;;;;4917903;28;20494;-73
2021/06/14 12:01:32;;;;;;;3.40;2.43;;;26.40;1.00;;;;;;4917527;28;20467;-73
2021/06/14 12:04:01;;;;;;;9.13;2.87;;;26.60;1.00;;;;;;4912768;28;20968;-73
2021/06/14 12:06:28;;;;;;;3.73;2.50;;;26.60;1.00;;;;;;4930146;28;20540;-73
2021/06/14 12:09:17;;;;;;;4.60;2.37;;;26.60;1.00;;;;;;4918176;28;20451;-74
2021/06/14 12:11:43;;;;;;;4.20;2.40;;;26.70;1.00;;;;;;4916389;28;20484;-73
2021/06/14 12:14:10;;;;;;;2.97;2.03;;;26.80;1.00;;;;;;4917324;28;20977;-74
2021/06/14 12:16:36;;;;;;;9.30;2.60;;;26.80;1.00;;;;;;4918778;28;20817;-73
2021/06/14 12:19:02;;;;;;;4.33;2.77;;;26.80;1.00;;;;;;4919910;28;20456;-74
2021/06/14 12:21:28;;;;;;;5.80;2.73;;;26.80;1.00;;;;;;4919496;28;20195;-74
2021/06/14 12:23:54;;;;;;;3.73;2.47;;;26.90;1.00;;;;;;4917527;28;21021;-73
2021/06/14 12:26:19;;;;;;;8.60;3.03;;;26.90;1.00;;;;;;4942527;28;20230;-74
2021/06/14 12:28:45;;;;;;;5.60;3.30;;;26.80;1.00;;;;;;4918360;28;20444;-74
2021/06/14 12:31:13;;;;;;;6.13;3.13;;;26.80;1.00;;;;;;4916746;28;20196;-73
2021/06/14 12:33:41;;;;;;;5.40;2.60;;;27.00;1.00;;;;;;4919213;28;20334;-73
2021/06/14 12:36:09;;;;;;;10.50;3.10;;;26.90;1.00;;;;;;4916954;28;20494;-74
2021/06/14 12:38:34;;;;;;;4.43;2.80;;;26.90;1.00;;;;;;4920997;28;20521;-74
2021/06/14 12:41:02;;;;;;;4.23;2.33;;;27.00;1.00;;;;;;4915289;28;20463;-74
2021/06/14 12:43:35;;;;;;;7.00;2.83;;;27.00;1.00;;;;;;4913216;28;20780;-73
2021/06/14 12:46:01;;;;;;;4.97;2.50;;;27.00;1.00;;;;;;4919808;28;20466;-74
2021/06/14 12:48:27;;;;;;;6.27;2.40;;;27.00;1.00;;;;;;4917875;28;20588;-73
2021/06/14 12:50:55;;;;;;;5.70;2.90;;;27.00;1.00;;;;;;4916373;28;20461;-73
2021/06/14 12:53:26;;;;;;;7.03;2.67;;;27.00;1.00;;;;;;4926466;28;20491;-73
2021/06/14 12:55:55;;;;;;;6.23;2.93;;;26.90;1.00;;;;;;4922217;28;20462;-74
2021/06/14 12:58:28;;;;;;;8.17;2.47;;;27.00;1.00;;;;;;4919090;28;20465;-74
2021/06/14 13:01:01;;;;;;;5.63;3.03;;;27.10;1.00;;;;;;4922794;28;20458;-74
2021/06/14 13:03:32;;;;;;;5.50;2.43;;;27.20;1.00;;;;;;4919852;28;20538;-74
2021/06/14 13:05:58;;;;;;;7.63;2.90;;;27.40;1.00;;;;;;4914765;28;20478;-74